Impacts TAF Board INFO
FOR SITUATIONAL AWARENESS. NOT TO BE USED FOR FLIGHT PLANNING PURPOSES.
IDs:

KEWR - Newark Intl, NJ, US

Issued at 1431 UTC 17 Dec 2017
Updated at 1548 UTC 17 Dec 2017
Potential Impact None Slight Moderate High
Time<<18/16Z 18/17Z 18/18Z 18/19Z 18/20Z 18/21Z 18/22Z 18/23Z 19/00Z 19/01Z 19/02Z 19/03Z 19/04Z
Type PRVL PRVL
VIS >6 >6
CIG 80 80
Cover BKN BKN
FltCat VFR VFR
WX -- --
WDir 270 270
WSpd 5 5
WGst -- --

Raw TAF
KEWR 171431Z 1715/1818 01005KT P6SM BKN050
  FM172100 03004KT P6SM FEW045 OVC150
  FM180500 VRB03KT P6SM SCT025 OVC080
  FM180800 VRB03KT P6SM BKN020
  FM181400 27005KT P6SM SCT020 BKN080


METAR Board
Radar Display
Forecast Discussion

FOR SITUATIONAL AWARENESS. NOT TO BE USED FOR FLIGHT PLANNING PURPOSES.